Time;durP1;ratioP1;P1;durP2;ratioP2;P2;SDS_P1;SDS_P2;PMS_P1;PMS_P2;Temp;Humidity;BMP_temperature;BMP_pressure;BME280_temperature;BME280_humidity;BME280_pressure;Samples;Min_cycle;Max_cycle;Signal;HPM_P1;HPM_P2
2021/07/20 04:00:48;;;;;;;5.63;5.10;;;14.30;99.90;;;;;;5876179;23;21180;-69
2021/07/20 04:03:24;;;;;;;5.47;5.07;;;14.40;99.90;;;;;;5011355;28;20946;-69
2021/07/20 04:05:53;;;;;;;5.63;5.00;;;14.30;99.90;;;;;;5008492;28;20475;-68
2021/07/20 04:08:21;;;;;;;4.80;4.40;;;14.40;99.90;;;;;;5012993;28;20577;-68
2021/07/20 04:10:49;;;;;;;5.70;5.20;;;14.40;99.90;;;;;;5006673;28;20475;-68
2021/07/20 04:13:17;;;;;;;5.53;5.03;;;14.50;99.90;;;;;;4993369;28;20605;-68
2021/07/20 04:15:48;;;;;;;6.83;6.33;;;14.50;99.90;;;;;;4997484;28;20545;-69
2021/07/20 04:18:16;;;;;;;5.70;5.20;;;14.50;99.90;;;;;;5012733;28;20511;-69
2021/07/20 04:20:43;;;;;;;5.10;4.70;;;14.60;99.90;;;;;;5008898;28;20498;-69
2021/07/20 04:23:10;;;;;;;5.37;4.90;;;14.60;99.90;;;;;;4997949;28;20450;-69
2021/07/20 04:25:38;;;;;;;4.43;4.13;;;14.70;99.90;;;;;;5010973;28;20482;-71
2021/07/20 04:28:06;;;;;;;4.63;4.33;;;14.70;99.90;;;;;;5000923;28;20490;-69
2021/07/20 04:30:34;;;;;;;5.67;5.17;;;14.80;99.90;;;;;;4998825;28;20549;-69
2021/07/20 04:33:02;;;;;;;4.70;4.30;;;14.80;99.90;;;;;;5019766;28;20486;-69
2021/07/20 04:35:29;;;;;;;7.23;6.60;;;14.90;99.90;;;;;;5012055;28;20551;-69
2021/07/20 04:37:56;;;;;;;4.90;4.60;;;14.90;99.90;;;;;;4992815;28;20466;-69
2021/07/20 04:40:24;;;;;;;5.30;4.67;;;15.00;99.90;;;;;;4993184;28;20850;-69
2021/07/20 04:42:50;;;;;;;5.00;4.50;;;15.10;99.90;;;;;;4992449;28;20474;-72
2021/07/20 04:45:17;;;;;;;5.20;4.80;;;15.10;99.90;;;;;;4992862;28;20459;-70
2021/07/20 04:47:45;;;;;;;4.43;4.23;;;15.20;99.90;;;;;;4992604;28;20593;-69
2021/07/20 04:50:14;;;;;;;5.43;4.93;;;15.20;99.90;;;;;;4992884;28;20482;-70
2021/07/20 04:52:42;;;;;;;8.77;4.97;;;15.30;99.90;;;;;;4992314;28;20466;-69
2021/07/20 04:55:10;;;;;;;8.60;4.53;;;15.30;99.90;;;;;;4993248;28;20463;-69
2021/07/20 04:57:38;;;;;;;4.83;4.53;;;15.40;99.90;;;;;;4992569;28;20955;-69
2021/07/20 05:00:06;;;;;;;4.80;4.50;;;15.40;99.90;;;;;;4992427;28;20840;-70
2021/07/20 05:02:36;;;;;;;5.50;5.00;;;15.50;99.90;;;;;;4995224;28;20486;-73
2021/07/20 05:05:05;;;;;;;5.07;4.67;;;15.60;99.90;;;;;;4994230;28;20477;-70
2021/07/20 05:07:33;;;;;;;5.20;4.90;;;15.60;99.90;;;;;;4992617;28;20471;-69
2021/07/20 05:10:01;;;;;;;4.17;3.87;;;15.60;99.90;;;;;;4992775;28;20490;-69
2021/07/20 05:12:28;;;;;;;6.53;5.13;;;15.70;99.90;;;;;;4992190;28;20482;-70
2021/07/20 05:14:55;;;;;;;4.70;4.50;;;15.70;99.90;;;;;;4995185;28;20463;-69
2021/07/20 05:17:23;;;;;;;4.30;4.00;;;15.80;99.90;;;;;;4995786;28;20478;-69
2021/07/20 05:19:50;;;;;;;5.47;4.97;;;15.80;99.90;;;;;;4996663;28;20907;-69
2021/07/20 05:22:20;;;;;;;5.07;4.43;;;15.90;99.90;;;;;;4995848;28;20486;-70
2021/07/20 05:24:48;;;;;;;4.97;4.43;;;15.90;99.90;;;;;;4997062;28;20585;-69
2021/07/20 05:27:16;;;;;;;4.60;4.20;;;15.90;99.90;;;;;;4996312;28;20459;-69
2021/07/20 05:29:46;;;;;;;4.20;4.00;;;15.90;99.90;;;;;;4996130;28;20564;-69
2021/07/20 05:32:17;;;;;;;5.30;4.73;;;16.00;99.90;;;;;;4995664;28;20502;-69
2021/07/20 05:34:47;;;;;;;4.63;4.30;;;16.00;99.90;;;;;;4996619;28;20494;-69
2021/07/20 05:37:14;;;;;;;4.80;4.50;;;16.00;99.90;;;;;;4995767;28;20497;-69
2021/07/20 05:39:41;;;;;;;5.50;4.50;;;16.00;99.90;;;;;;4995990;28;20458;-69
2021/07/20 05:42:10;;;;;;;6.23;4.30;;;16.00;99.90;;;;;;4995413;28;20904;-70
2021/07/20 05:44:37;;;;;;;4.63;4.37;;;16.00;99.90;;;;;;4996205;28;20470;-69
2021/07/20 05:47:05;;;;;;;4.57;3.93;;;16.10;99.90;;;;;;4995790;28;20473;-69
2021/07/20 05:49:35;;;;;;;5.57;4.63;;;16.20;99.90;;;;;;4996059;28;20533;-71
2021/07/20 05:52:02;;;;;;;5.07;4.67;;;16.10;99.90;;;;;;4995914;28;20482;-70
2021/07/20 05:54:30;;;;;;;5.70;4.10;;;16.20;99.90;;;;;;4996101;28;20454;-72
2021/07/20 05:56:59;;;;;;;4.50;4.10;;;16.20;99.90;;;;;;4995682;28;20471;-70
2021/07/20 05:59:27;;;;;;;7.23;4.30;;;16.20;99.90;;;;;;4995544;28;20459;-71
2021/07/20 06:01:55;;;;;;;4.90;4.67;;;16.30;99.90;;;;;;4997058;28;20510;-71
2021/07/20 06:04:23;;;;;;;4.50;4.30;;;16.40;99.90;;;;;;4997999;28;20466;-69
2021/07/20 06:06:51;;;;;;;5.10;4.60;;;16.40;99.90;;;;;;4995882;28;20459;-69
2021/07/20 06:09:18;;;;;;;4.50;4.07;;;16.40;99.90;;;;;;4995384;28;20481;-71
2021/07/20 06:11:47;;;;;;;5.27;4.33;;;16.40;99.90;;;;;;4995523;28;20541;-69
2021/07/20 06:14:16;;;;;;;5.27;4.77;;;16.50;99.90;;;;;;4997429;28;21005;-72
2021/07/20 06:16:45;;;;;;;4.13;3.87;;;16.50;99.90;;;;;;4999743;28;20463;-69
2021/07/20 06:19:12;;;;;;;4.10;3.70;;;16.50;99.90;;;;;;4997026;28;20471;-69
2021/07/20 06:21:40;;;;;;;3.57;3.40;;;16.60;99.90;;;;;;5009256;28;20493;-69
2021/07/20 06:24:08;;;;;;;3.90;3.43;;;16.70;99.90;;;;;;4995869;28;20628;-70
2021/07/20 06:26:37;;;;;;;3.90;3.60;;;16.70;99.90;;;;;;5017732;28;20472;-70
2021/07/20 06:29:04;;;;;;;4.63;4.40;;;16.80;99.90;;;;;;5000262;28;20494;-71
2021/07/20 06:31:31;;;;;;;3.83;3.50;;;16.80;99.90;;;;;;4998184;28;20483;-70
2021/07/20 06:34:00;;;;;;;5.20;4.07;;;17.00;99.90;;;;;;4998076;28;20475;-69
2021/07/20 06:36:27;;;;;;;4.30;4.10;;;17.20;99.90;;;;;;4997015;28;20459;-71
2021/07/20 06:38:54;;;;;;;4.03;3.87;;;17.40;99.90;;;;;;4996229;28;20525;-69
2021/07/20 06:41:21;;;;;;;3.40;3.20;;;17.40;99.90;;;;;;5010096;28;20490;-70
2021/07/20 06:43:48;;;;;;;4.07;3.67;;;17.50;99.90;;;;;;5011153;28;20866;-69
2021/07/20 06:46:17;;;;;;;4.77;4.30;;;17.80;99.90;;;;;;5000758;28;20463;-69
2021/07/20 06:48:46;;;;;;;4.70;4.20;;;18.10;99.90;;;;;;4995337;28;20474;-69
2021/07/20 06:51:14;;;;;;;2.77;2.67;;;18.80;99.90;;;;;;5001960;28;20510;-69
2021/07/20 06:53:41;;;;;;;3.37;3.07;;;19.70;99.90;;;;;;4997254;28;20517;-70
2021/07/20 06:56:17;;;;;;;3.13;2.93;;;19.70;99.90;;;;;;4996969;28;20517;-70
2021/07/20 06:58:45;;;;;;;5.73;3.20;;;19.70;99.90;;;;;;5014510;28;20462;-73
2021/07/20 07:01:15;;;;;;;3.60;2.67;;;20.00;99.90;;;;;;5003310;28;20486;-71
2021/07/20 07:03:46;;;;;;;3.03;2.83;;;20.20;99.90;;;;;;4994513;28;20459;-69
2021/07/20 07:06:18;;;;;;;2.60;2.50;;;20.40;99.90;;;;;;4994731;28;20486;-70
2021/07/20 07:08:46;;;;;;;2.20;2.00;;;20.90;99.90;;;;;;4994685;28;20504;-71
2021/07/20 07:11:14;;;;;;;3.00;2.80;;;21.70;99.90;;;;;;4994245;28;20491;-72
2021/07/20 07:13:40;;;;;;;2.80;2.70;;;22.30;99.90;;;;;;4994860;28;20470;-72
2021/07/20 07:16:08;;;;;;;2.63;2.43;;;23.10;99.90;;;;;;4994163;28;20484;-73
2021/07/20 07:18:35;;;;;;;2.13;2.03;;;23.20;99.90;;;;;;4994780;28;20476;-72
2021/07/20 07:21:02;;;;;;;3.80;2.37;;;22.70;99.90;;;;;;4998041;28;20480;-72
2021/07/20 07:23:32;;;;;;;3.10;2.90;;;22.00;99.90;;;;;;5000725;28;20547;-72
2021/07/20 07:26:01;;;;;;;4.63;3.30;;;21.20;99.90;;;;;;4993833;28;20463;-71
2021/07/20 07:28:29;;;;;;;4.53;3.03;;;20.60;99.90;;;;;;4994432;28;20958;-71
2021/07/20 07:30:57;;;;;;;3.93;3.67;;;20.00;99.90;;;;;;4994371;28;20494;-70
2021/07/20 07:33:24;;;;;;;3.40;3.13;;;20.00;99.90;;;;;;4995079;28;20965;-70
2021/07/20 07:35:51;;;;;;;5.23;4.90;;;19.80;99.90;;;;;;4994331;28;20931;-70
2021/07/20 07:38:20;;;;;;;3.80;3.67;;;19.80;99.90;;;;;;4994318;28;20459;-70
2021/07/20 07:40:51;;;;;;;4.90;3.80;;;19.60;99.90;;;;;;5005210;28;20490;-72
2021/07/20 07:43:19;;;;;;;4.33;3.93;;;19.50;99.90;;;;;;5013756;28;20466;-72
2021/07/20 07:45:48;;;;;;;5.13;4.10;;;19.60;99.90;;;;;;5000214;28;20864;-72
2021/07/20 07:48:15;;;;;;;4.77;4.27;;;19.60;99.90;;;;;;4997232;28;20500;-72
2021/07/20 07:50:42;;;;;;;4.30;4.10;;;19.70;99.90;;;;;;5013398;28;20490;-74
2021/07/20 07:53:08;;;;;;;4.93;4.40;;;20.20;99.90;;;;;;5015560;28;20470;-73
2021/07/20 07:55:36;;;;;;;5.53;5.03;;;20.80;99.90;;;;;;4997645;28;20490;-73
2021/07/20 07:58:05;;;;;;;5.00;4.57;;;21.10;99.90;;;;;;5003178;28;20455;-73
2021/07/20 08:00:32;;;;;;;4.80;4.60;;;21.70;99.90;;;;;;5002050;28;20466;-74
2021/07/20 08:03:02;;;;;;;5.47;4.50;;;22.40;99.90;;;;;;5007415;28;20800;-74
2021/07/20 08:05:29;;;;;;;4.77;3.93;;;22.40;99.90;;;;;;5003751;28;20463;-73
2021/07/20 08:07:56;;;;;;;4.57;4.47;;;22.20;99.90;;;;;;4994803;28;20467;-73
2021/07/20 08:10:24;;;;;;;4.50;4.30;;;21.90;99.90;;;;;;4995015;28;20487;-72
2021/07/20 08:12:54;;;;;;;5.37;4.97;;;21.50;99.90;;;;;;4995183;28;20459;-71
2021/07/20 08:15:23;;;;;;;5.60;5.10;;;21.10;99.90;;;;;;4995640;28;20494;-71
2021/07/20 08:17:50;;;;;;;4.77;4.50;;;20.70;99.90;;;;;;4997005;28;20490;-71
2021/07/20 08:20:20;;;;;;;4.90;4.50;;;20.40;99.90;;;;;;4994079;28;20463;-72
2021/07/20 08:22:47;;;;;;;6.70;6.07;;;20.40;99.90;;;;;;5011605;28;20458;-73
2021/07/20 08:25:23;;;;;;;4.90;4.70;;;20.40;99.90;;;;;;5009251;28;20532;-72
2021/07/20 08:27:54;;;;;;;5.30;4.97;;;20.60;99.90;;;;;;5005427;28;20465;-73
2021/07/20 08:30:23;;;;;;;4.97;4.50;;;20.60;99.90;;;;;;5006977;28;20487;-72
2021/07/20 08:32:55;;;;;;;6.03;4.60;;;20.80;99.90;;;;;;4992462;28;20553;-71
2021/07/20 08:35:25;;;;;;;4.10;3.83;;;20.90;99.90;;;;;;4993941;28;20470;-72
2021/07/20 08:37:54;;;;;;;3.90;3.70;;;20.90;99.90;;;;;;5011563;28;20462;-70
2021/07/20 08:40:40;;;;;;;4.67;3.70;;;20.90;99.90;;;;;;5005260;28;20455;-70
2021/07/20 08:43:20;;;;;;;3.87;3.70;;;20.80;99.90;;;;;;5010027;28;20644;-72
2021/07/20 08:46:05;;;;;;;3.93;3.63;;;20.60;99.90;;;;;;5012619;28;20528;-71
2021/07/20 08:48:36;;;;;;;4.43;3.60;;;20.60;99.90;;;;;;5016081;28;20569;-73
2021/07/20 08:51:06;;;;;;;4.03;3.73;;;20.60;99.90;;;;;;5004108;28;20499;-73
2021/07/20 08:53:39;;;;;;;3.80;3.63;;;20.50;99.90;;;;;;4999141;28;20485;-73
2021/07/20 08:56:08;;;;;;;4.43;4.03;;;20.60;99.90;;;;;;5013570;28;20465;-70
2021/07/20 08:58:41;;;;;;;5.57;3.83;;;21.00;99.90;;;;;;5007888;28;20470;-72
2021/07/20 09:01:14;;;;;;;4.20;3.90;;;21.20;99.90;;;;;;4993519;28;20494;-71
2021/07/20 09:03:48;;;;;;;4.90;4.60;;;21.30;99.90;;;;;;5000295;28;20459;-71
2021/07/20 09:06:19;;;;;;;3.87;3.67;;;21.60;99.90;;;;;;5002864;28;20476;-70
2021/07/20 09:08:53;;;;;;;5.37;4.80;;;21.50;99.90;;;;;;4995960;28;20466;-71
2021/07/20 09:11:25;;;;;;;5.10;4.60;;;21.30;99.90;;;;;;4994032;28;20861;-72
2021/07/20 09:13:55;;;;;;;4.10;3.90;;;21.10;99.90;;;;;;5008440;28;20524;-72
2021/07/20 09:16:32;;;;;;;4.80;4.47;;;20.90;99.90;;;;;;4995851;28;20854;-72
2021/07/20 09:19:06;;;;;;;4.90;4.50;;;20.90;99.90;;;;;;5003568;28;20488;-72
2021/07/20 09:21:38;;;;;;;6.57;4.33;;;20.90;99.90;;;;;;5016178;28;20488;-74
2021/07/20 09:24:10;;;;;;;4.70;4.40;;;20.90;99.90;;;;;;5020403;28;20500;-74
2021/07/20 09:26:41;;;;;;;4.43;4.23;;;20.90;99.90;;;;;;5017365;28;20466;-74
2021/07/20 09:29:15;;;;;;;4.70;4.40;;;21.10;99.90;;;;;;5005868;28;20553;-74
2021/07/20 09:32:08;;;;;;;4.83;4.53;;;21.30;99.90;;;;;;5017415;28;20494;-74
2021/07/20 09:34:57;;;;;;;4.00;3.80;;;21.30;99.90;;;;;;5018479;28;20474;-74
2021/07/20 09:37:31;;;;;;;4.60;4.20;;;21.10;99.90;;;;;;5019156;28;20823;-74
2021/07/20 09:40:11;;;;;;;5.20;4.90;;;21.10;99.90;;;;;;5020494;28;21003;-74
2021/07/20 09:42:43;;;;;;;4.90;4.60;;;21.20;99.90;;;;;;5019701;28;20484;-74
2021/07/20 09:45:13;;;;;;;4.60;4.27;;;21.30;99.90;;;;;;5008875;28;20462;-70
2021/07/20 09:47:58;;;;;;;6.13;4.97;;;21.30;99.90;;;;;;5011357;28;20925;-69
2021/07/20 09:50:26;;;;;;;5.23;4.83;;;21.50;99.90;;;;;;4991470;28;20509;-71
2021/07/20 09:53:20;;;;;;;4.43;4.07;;;21.50;99.90;;;;;;4998422;28;20498;-72
2021/07/20 09:56:01;;;;;;;4.07;3.77;;;21.70;99.90;;;;;;5000945;28;20467;-71
2021/07/20 09:58:32;;;;;;;18.70;4.87;;;22.10;99.90;;;;;;5004955;28;20517;-71
2021/07/20 10:01:13;;;;;;;4.23;3.93;;;22.30;99.90;;;;;;5010457;28;20509;-70
2021/07/20 10:03:51;;;;;;;4.63;4.20;;;22.50;99.90;;;;;;5003660;28;20553;-68
2021/07/20 10:06:23;;;;;;;5.00;4.60;;;22.70;99.90;;;;;;5010012;28;20470;-70
2021/07/20 10:08:56;;;;;;;3.90;3.80;;;22.80;99.90;;;;;;5015577;28;20450;-73
2021/07/20 10:11:26;;;;;;;4.57;4.27;;;22.70;99.90;;;;;;5015230;28;20498;-72
2021/07/20 10:14:16;;;;;;;4.03;3.77;;;22.60;99.90;;;;;;5005135;28;20454;-72
2021/07/20 10:16:49;;;;;;;4.10;3.90;;;22.30;99.90;;;;;;4997371;28;20860;-72
2021/07/20 10:19:28;;;;;;;4.70;4.20;;;22.00;99.90;;;;;;5007941;28;20470;-73
2021/07/20 10:21:59;;;;;;;5.33;5.00;;;21.70;99.90;;;;;;5007494;28;20533;-73
2021/07/20 10:24:27;;;;;;;6.93;5.27;;;21.60;99.90;;;;;;5002324;28;20451;-73
2021/07/20 10:27:00;;;;;;;5.33;4.93;;;21.60;99.90;;;;;;5003796;28;20522;-72
2021/07/20 10:29:40;;;;;;;5.30;4.80;;;21.50;99.90;;;;;;4997153;28;20463;-72
2021/07/20 10:32:13;;;;;;;9.60;4.80;;;21.60;99.90;;;;;;4997217;28;20502;-72
2021/07/20 10:34:45;;;;;;;5.97;5.47;;;21.70;99.90;;;;;;4996901;28;20482;-71
2021/07/20 10:37:18;;;;;;;5.67;5.17;;;21.80;99.90;;;;;;4998697;28;20501;-72
2021/07/20 10:39:50;;;;;;;5.50;5.00;;;21.90;99.90;;;;;;5013473;28;20461;-73
2021/07/20 10:42:23;;;;;;;5.47;5.07;;;21.90;99.90;;;;;;4995563;28;20471;-72
2021/07/20 10:44:58;;;;;;;4.73;4.30;;;22.00;99.90;;;;;;4996684;28;20495;-73
2021/07/20 10:47:29;;;;;;;5.53;5.13;;;22.00;99.90;;;;;;5003269;28;20917;-73
2021/07/20 10:50:02;;;;;;;4.53;4.23;;;22.20;99.90;;;;;;5020759;28;20462;-73
2021/07/20 10:53:16;;;;;;;4.50;4.17;;;22.30;99.90;;;;;;5015308;28;20474;-74
2021/07/20 10:55:52;;;;;;;5.30;5.00;;;22.50;99.90;;;;;;4995821;28;20482;-73
2021/07/20 10:58:27;;;;;;;5.33;4.97;;;22.70;99.90;;;;;;4995992;28;20493;-72
2021/07/20 11:00:59;;;;;;;6.47;5.87;;;22.50;99.90;;;;;;4995692;28;20526;-72
2021/07/20 11:03:36;;;;;;;4.80;4.50;;;22.60;99.90;;;;;;4993625;28;20537;-71
2021/07/20 11:06:08;;;;;;;5.03;4.63;;;22.60;99.90;;;;;;4995091;28;20450;-71
2021/07/20 11:08:41;;;;;;;5.43;5.10;;;22.70;99.90;;;;;;4994362;28;20466;-72
2021/07/20 11:11:09;;;;;;;5.70;5.20;;;22.60;99.90;;;;;;4994476;28;20511;-71
2021/07/20 11:13:40;;;;;;;6.03;5.53;;;22.50;99.90;;;;;;4993792;28;20470;-71
2021/07/20 11:16:08;;;;;;;4.90;4.60;;;22.30;99.90;;;;;;5011062;28;20469;-71
2021/07/20 11:18:39;;;;;;;5.97;5.27;;;22.20;99.90;;;;;;4998802;28;20978;-70
2021/07/20 11:21:12;;;;;;;5.77;5.27;;;22.00;99.90;;;;;;4998138;28;20502;-72
2021/07/20 11:23:41;;;;;;;5.03;4.80;;;22.00;99.90;;;;;;4998415;28;20455;-73
2021/07/20 11:26:09;;;;;;;5.73;5.30;;;22.00;99.90;;;;;;5011444;28;21036;-73
2021/07/20 11:28:38;;;;;;;5.23;4.83;;;22.00;99.90;;;;;;5010674;28;20546;-73
2021/07/20 11:31:11;;;;;;;5.53;5.10;;;22.20;99.90;;;;;;5010107;28;20989;-72
2021/07/20 11:33:42;;;;;;;4.37;4.10;;;22.30;99.90;;;;;;5018227;28;20529;-70
2021/07/20 11:36:13;;;;;;;4.87;4.53;;;22.40;99.90;;;;;;5001946;28;20459;-73
2021/07/20 11:38:40;;;;;;;5.30;4.80;;;22.40;99.90;;;;;;5001433;28;20455;-73
2021/07/20 11:41:13;;;;;;;4.63;4.33;;;22.40;99.90;;;;;;4997155;28;20482;-73
2021/07/20 11:44:00;;;;;;;4.60;4.30;;;22.30;99.90;;;;;;4995274;28;20459;-72
2021/07/20 11:46:35;;;;;;;5.10;4.60;;;22.10;99.90;;;;;;4996067;28;20470;-69
2021/07/20 11:49:06;;;;;;;4.17;3.87;;;22.20;99.90;;;;;;5010434;28;20842;-71
2021/07/20 11:51:43;;;;;;;5.50;4.70;;;22.30;99.90;;;;;;4996114;28;20498;-71
2021/07/20 11:54:17;;;;;;;5.10;4.70;;;22.50;99.90;;;;;;4994227;28;20489;-71
2021/07/20 11:56:56;;;;;;;5.57;4.87;;;22.30;99.90;;;;;;4994059;28;20474;-70
2021/07/20 11:59:56;;;;;;;4.63;4.30;;;22.20;99.90;;;;;;4994666;28;20459;-71
2021/07/20 12:03:06;;;;;;;7.30;5.10;;;22.20;99.90;;;;;;4993522;28;20628;-70
2021/07/20 12:05:56;;;;;;;6.33;4.60;;;22.20;99.90;;;;;;4993663;28;20514;-73
2021/07/20 12:08:32;;;;;;;5.13;4.80;;;22.20;99.90;;;;;;4994892;28;20455;-70
2021/07/20 12:11:07;;;;;;;6.17;5.57;;;22.20;99.90;;;;;;4994438;28;20490;-70
2021/07/20 12:13:35;;;;;;;5.37;4.87;;;22.10;99.90;;;;;;4994341;28;20458;-70
2021/07/20 12:16:08;;;;;;;5.20;4.77;;;22.00;99.90;;;;;;4994072;28;20982;-72
2021/07/20 12:18:46;;;;;;;5.90;4.90;;;22.00;99.90;;;;;;4997156;28;20451;-72
2021/07/20 12:21:15;;;;;;;4.83;4.53;;;22.00;99.90;;;;;;4997398;28;20482;-72
2021/07/20 12:23:45;;;;;;;5.10;4.80;;;22.00;99.90;;;;;;4997071;28;20458;-71
2021/07/20 12:26:12;;;;;;;5.37;5.00;;;21.90;99.90;;;;;;4997152;28;20479;-71
2021/07/20 12:28:44;;;;;;;4.60;4.20;;;22.10;99.90;;;;;;4997393;28;20486;-72
2021/07/20 12:31:14;;;;;;;5.40;4.83;;;22.30;99.90;;;;;;4994328;28;20495;-73
2021/07/20 12:33:44;;;;;;;5.33;4.83;;;22.50;99.90;;;;;;4994323;28;20455;-72
2021/07/20 12:36:12;;;;;;;5.77;5.13;;;22.80;99.90;;;;;;4994895;28;20455;-71
2021/07/20 12:38:39;;;;;;;5.20;4.70;;;22.80;99.90;;;;;;4994116;28;20463;-72
2021/07/20 12:41:09;;;;;;;4.77;4.47;;;22.80;99.90;;;;;;4994704;28;20471;-72
2021/07/20 12:43:39;;;;;;;5.60;5.20;;;22.80;99.90;;;;;;4993992;28;20528;-71
2021/07/20 12:46:12;;;;;;;6.90;5.50;;;23.00;99.90;;;;;;4993832;28;20467;-71
2021/07/20 12:48:47;;;;;;;5.20;4.80;;;23.10;99.90;;;;;;4993905;28;20455;-72
2021/07/20 12:51:15;;;;;;;5.47;5.17;;;22.90;99.90;;;;;;4993777;28;20486;-72
2021/07/20 12:53:43;;;;;;;5.43;5.13;;;23.00;99.90;;;;;;4997150;28;20482;-72
2021/07/20 12:56:12;;;;;;;5.20;4.63;;;22.90;99.90;;;;;;4995429;28;20467;-72
2021/07/20 12:58:39;;;;;;;5.00;4.70;;;22.90;99.90;;;;;;5000475;28;20454;-72
2021/07/20 13:01:06;;;;;;;5.37;4.87;;;22.90;99.90;;;;;;5012121;28;20521;-73
2021/07/20 13:03:34;;;;;;;7.80;5.47;;;22.90;99.90;;;;;;4993407;28;20470;-72
2021/07/20 13:06:02;;;;;;;5.53;5.13;;;22.90;99.90;;;;;;4994421;28;20971;-72
2021/07/20 13:08:29;;;;;;;6.20;5.60;;;23.00;99.90;;;;;;5011762;28;20477;-71
2021/07/20 13:10:56;;;;;;;7.23;5.10;;;23.00;99.90;;;;;;5011881;28;20532;-72
2021/07/20 13:13:28;;;;;;;5.67;5.17;;;23.20;99.90;;;;;;4994599;28;20569;-71
2021/07/20 13:15:58;;;;;;;5.87;5.47;;;23.50;99.90;;;;;;4993575;28;20450;-70
2021/07/20 13:18:27;;;;;;;6.63;6.00;;;23.50;99.90;;;;;;4993970;28;20458;-70
2021/07/20 13:20:58;;;;;;;5.60;5.30;;;23.60;99.90;;;;;;4994104;28;20836;-69
2021/07/20 13:23:27;;;;;;;5.83;5.30;;;23.60;99.90;;;;;;4997427;28;20533;-69
2021/07/20 13:25:54;;;;;;;6.37;5.87;;;23.70;99.90;;;;;;4998760;28;20953;-70
2021/07/20 13:28:25;;;;;;;6.10;5.70;;;23.80;99.90;;;;;;4999239;28;20463;-70
2021/07/20 13:30:58;;;;;;;5.77;5.47;;;23.80;99.90;;;;;;4998006;28;20483;-70
2021/07/20 13:33:25;;;;;;;7.00;5.83;;;23.90;99.90;;;;;;4993339;28;20517;-69
2021/07/20 13:35:55;;;;;;;5.30;5.00;;;24.00;99.90;;;;;;4995759;28;20526;-70
2021/07/20 13:38:24;;;;;;;6.20;5.80;;;23.80;99.90;;;;;;4997350;28;20443;-70
2021/07/20 13:40:51;;;;;;;6.23;5.63;;;23.50;99.90;;;;;;4996797;28;20513;-70
2021/07/20 13:43:19;;;;;;;13.03;6.80;;;23.40;99.90;;;;;;4996237;28;20477;-70
2021/07/20 13:45:48;;;;;;;8.73;5.47;;;23.40;99.90;;;;;;4996568;28;20462;-70
2021/07/20 13:48:18;;;;;;;6.57;6.07;;;23.50;99.90;;;;;;4995682;28;20598;-70
2021/07/20 13:50:47;;;;;;;5.70;4.97;;;23.50;99.90;;;;;;4996362;28;20586;-70
2021/07/20 13:53:25;;;;;;;7.60;5.43;;;23.60;99.90;;;;;;4995571;28;20970;-70
2021/07/20 13:56:03;;;;;;;5.03;4.53;;;23.60;99.90;;;;;;4995867;28;20462;-70
2021/07/20 13:58:33;;;;;;;5.20;4.80;;;23.40;99.90;;;;;;4996091;28;20474;-70
2021/07/20 14:01:03;;;;;;;5.23;4.83;;;23.30;99.90;;;;;;4995389;28;20505;-70
2021/07/20 14:03:30;;;;;;;7.77;4.93;;;23.30;99.90;;;;;;4994923;28;20475;-70
2021/07/20 14:05:57;;;;;;;11.77;5.63;;;23.40;99.90;;;;;;4995637;28;20509;-70
2021/07/20 14:08:26;;;;;;;5.60;5.00;;;23.40;99.90;;;;;;4995899;28;20470;-70
2021/07/20 14:10:56;;;;;;;8.80;5.57;;;23.50;99.90;;;;;;4995582;28;20570;-70
2021/07/20 14:13:24;;;;;;;4.87;4.43;;;23.60;99.90;;;;;;4995749;28;20485;-71
2021/07/20 14:15:51;;;;;;;5.70;5.10;;;23.70;99.90;;;;;;4995309;28;20830;-71
2021/07/20 14:18:19;;;;;;;4.37;3.97;;;23.70;99.90;;;;;;4995375;28;20467;-72
2021/07/20 14:20:47;;;;;;;5.47;5.03;;;23.80;99.90;;;;;;4995335;28;20490;-72
2021/07/20 14:23:14;;;;;;;5.50;5.10;;;23.90;99.90;;;;;;4995116;28;20458;-72
2021/07/20 14:25:49;;;;;;;4.40;4.00;;;23.60;99.90;;;;;;4995439;28;20955;-71
2021/07/20 14:28:18;;;;;;;5.50;4.97;;;23.60;99.90;;;;;;4995932;28;20467;-70
2021/07/20 14:30:47;;;;;;;5.07;4.67;;;23.70;99.90;;;;;;4994727;28;20512;-70
2021/07/20 14:33:15;;;;;;;4.87;4.47;;;23.70;99.90;;;;;;4994659;28;20577;-70
2021/07/20 14:35:44;;;;;;;6.60;4.80;;;23.60;99.90;;;;;;4995394;28;20494;-71
2021/07/20 14:38:15;;;;;;;5.13;4.53;;;23.50;99.90;;;;;;4994855;28;20463;-71
2021/07/20 14:40:43;;;;;;;4.70;4.40;;;23.50;99.90;;;;;;4995555;28;20610;-71
2021/07/20 14:43:11;;;;;;;5.10;4.73;;;23.60;99.90;;;;;;4994981;28;20463;-70
2021/07/20 14:45:39;;;;;;;5.27;4.80;;;23.80;99.90;;;;;;4994432;28;20843;-72
2021/07/20 14:48:09;;;;;;;6.47;4.67;;;23.80;99.90;;;;;;4994328;28;20481;-70
2021/07/20 14:50:38;;;;;;;4.87;4.50;;;23.70;99.90;;;;;;4995706;28;20504;-70
2021/07/20 14:53:23;;;;;;;4.50;4.10;;;23.70;99.90;;;;;;4994604;28;20589;-71
2021/07/20 14:55:51;;;;;;;4.73;4.40;;;23.60;99.90;;;;;;4994751;28;20546;-71
2021/07/20 14:58:20;;;;;;;4.93;4.63;;;23.50;99.90;;;;;;4999093;28;20475;-73
2021/07/20 15:00:56;;;;;;;5.00;4.60;;;23.50;99.90;;;;;;4999889;28;20493;-72
2021/07/20 15:03:31;;;;;;;6.60;4.57;;;23.60;99.90;;;;;;4998098;28;20535;-71
2021/07/20 15:05:58;;;;;;;4.10;3.80;;;23.70;99.90;;;;;;5015859;28;20508;-71
2021/07/20 15:08:26;;;;;;;3.80;3.60;;;23.50;99.90;;;;;;5013247;28;20455;-70
2021/07/20 15:10:54;;;;;;;5.00;4.63;;;23.60;99.90;;;;;;5013296;28;20474;-72
2021/07/20 15:13:22;;;;;;;4.13;3.87;;;23.50;99.90;;;;;;5010116;28;20553;-69
2021/07/20 15:16:02;;;;;;;4.57;4.17;;;23.50;99.90;;;;;;5010406;28;20470;-72
2021/07/20 15:18:57;;;;;;;4.73;4.30;;;23.40;99.90;;;;;;5002770;28;20541;-71
2021/07/20 15:21:26;;;;;;;4.77;4.50;;;23.30;99.90;;;;;;5006769;28;20489;-71
2021/07/20 15:23:54;;;;;;;5.33;4.57;;;23.20;99.90;;;;;;4998584;28;20546;-71
2021/07/20 15:26:21;;;;;;;4.33;4.13;;;23.20;99.90;;;;;;4996618;28;20462;-70
2021/07/20 15:28:48;;;;;;;4.00;3.80;;;;;;;;;;5014172;28;20938;-71
2021/07/20 15:31:16;;;;;;;4.60;4.30;;;;;;;;;;5005261;28;20475;-72
2021/07/20 15:33:45;;;;;;;4.13;3.73;;;23.10;99.90;;;;;;4995330;28;20566;-71
2021/07/20 15:36:13;;;;;;;4.73;4.43;;;23.10;99.90;;;;;;4995826;28;20924;-71
2021/07/20 15:38:40;;;;;;;5.60;5.10;;;23.20;99.90;;;;;;4994871;28;20531;-70
2021/07/20 15:41:09;;;;;;;4.97;4.57;;;23.30;99.90;;;;;;4999533;28;20533;-72
2021/07/20 15:43:38;;;;;;;5.97;5.37;;;23.30;99.90;;;;;;4997191;28;20514;-72
2021/07/20 15:46:05;;;;;;;5.73;5.20;;;23.20;99.90;;;;;;5000342;28;20590;-74
2021/07/20 15:48:32;;;;;;;5.10;4.60;;;23.30;99.90;;;;;;4999387;28;20497;-73
2021/07/20 15:51:01;;;;;;;5.83;5.33;;;23.30;99.90;;;;;;4996695;28;20969;-73
2021/07/20 15:53:29;;;;;;;5.90;5.47;;;23.40;99.90;;;;;;4997766;28;20479;-73
2021/07/20 15:55:57;;;;;;;5.73;5.33;;;23.40;99.90;;;;;;4998022;28;20463;-72
2021/07/20 15:58:28;;;;;;;6.57;5.97;;;23.20;99.90;;;;;;5001232;28;20474;-72
2021/07/20 16:00:55;;;;;;;6.40;5.80;;;23.00;99.90;;;;;;5010822;28;20530;-72
2021/07/20 16:03:22;;;;;;;5.73;5.23;;;22.80;99.90;;;;;;5000118;28;20459;-73
2021/07/20 16:05:55;;;;;;;6.43;5.77;;;22.80;99.90;;;;;;5006703;28;20506;-73
2021/07/20 16:08:21;;;;;;;7.90;7.20;;;22.80;99.90;;;;;;5007263;28;20506;-73
2021/07/20 16:10:48;;;;;;;9.33;6.93;;;22.80;99.90;;;;;;5001277;28;20491;-71
2021/07/20 16:13:15;;;;;;;7.90;7.10;;;22.80;99.90;;;;;;4993841;28;20490;-70
2021/07/20 16:15:45;;;;;;;7.43;6.40;;;22.70;99.90;;;;;;4995944;28;20481;-73
2021/07/20 16:18:13;;;;;;;7.03;6.40;;;22.60;99.90;;;;;;5001552;28;20471;-73
2021/07/20 16:20:42;;;;;;;7.47;6.53;;;22.60;99.90;;;;;;5006172;28;20513;-71
2021/07/20 16:23:11;;;;;;;7.33;6.73;;;22.50;99.90;;;;;;5011389;28;20801;-71
2021/07/20 16:25:39;;;;;;;7.20;6.60;;;22.50;99.90;;;;;;4994474;28;20578;-71
2021/07/20 16:28:08;;;;;;;8.90;5.40;;;22.50;99.90;;;;;;4994617;28;20467;-71
2021/07/20 16:30:36;;;;;;;7.87;7.13;;;22.50;99.90;;;;;;4994044;28;20545;-71
2021/07/20 16:33:06;;;;;;;7.23;6.53;;;22.30;99.90;;;;;;4994468;28;20515;-71
2021/07/20 16:35:33;;;;;;;7.83;6.53;;;22.20;99.90;;;;;;4994259;28;20466;-70
2021/07/20 16:38:01;;;;;;;6.37;5.87;;;22.20;99.90;;;;;;4993586;28;20493;-73
2021/07/20 16:40:30;;;;;;;6.97;5.80;;;22.10;99.90;;;;;;4997600;28;20491;-73
2021/07/20 16:42:59;;;;;;;6.53;5.93;;;22.00;99.90;;;;;;4997583;28;20550;-73
2021/07/20 16:45:27;;;;;;;8.00;6.47;;;22.00;99.90;;;;;;4996114;28;20955;-72
2021/07/20 16:47:54;;;;;;;8.20;7.40;;;22.00;99.90;;;;;;4997166;28;20466;-73
2021/07/20 16:50:24;;;;;;;7.40;6.70;;;22.30;99.90;;;;;;4998810;28;20469;-73
2021/07/20 16:52:52;;;;;;;7.13;6.47;;;22.20;99.90;;;;;;4999491;28;20819;-74
2021/07/20 16:55:20;;;;;;;7.00;6.20;;;22.00;99.90;;;;;;5000069;28;20474;-73
2021/07/20 16:57:48;;;;;;;9.10;5.47;;;22.10;99.90;;;;;;4999399;28;20474;-72
2021/07/20 17:00:16;;;;;;;5.67;5.30;;;21.90;99.90;;;;;;5000903;28;20543;-73
2021/07/20 17:02:45;;;;;;;6.33;5.90;;;21.90;99.90;;;;;;5003921;28;20478;-73
2021/07/20 17:05:14;;;;;;;7.47;6.77;;;21.80;99.90;;;;;;4999632;28;20469;-74